Time;durP1;ratioP1;P1;durP2;ratioP2;P2;SDS_P1;SDS_P2;PMS_P1;PMS_P2;Temp;Humidity;BMP_temperature;BMP_pressure;BME280_temperature;BME280_humidity;BME280_pressure;Samples;Min_cycle;Max_cycle;Signal;HPM_P1;HPM_P2
2021/05/25 00:01:33;;;;;;;;;;;9.90;90.00;;;;;;4304823;33;29118;-72
2021/05/25 00:04:00;;;;;;;;;;;9.90;90.00;;;;;;4319035;33;20028;-72
2021/05/25 00:06:27;;;;;;;;;;;9.90;90.10;;;;;;4318475;33;20198;-72
2021/05/25 00:08:57;;;;;;;;;;;9.90;90.10;;;;;;4318573;33;20064;-72
2021/05/25 00:11:24;;;;;;;;;;;9.80;90.10;;;;;;4318691;33;20005;-72
2021/05/25 00:13:52;;;;;;;;;;;9.80;90.20;;;;;;4318798;33;20053;-72
2021/05/25 00:16:20;;;;;;;;;;;9.80;90.30;;;;;;4318235;33;21216;-72
2021/05/25 00:18:47;;;;;;;;;;;9.70;90.40;;;;;;4318289;33;20065;-72
2021/05/25 00:21:14;;;;;;;;;;;9.70;90.40;;;;;;4318317;33;25391;-72
2021/05/25 00:23:43;;;;;;;;;;;9.60;90.50;;;;;;4318388;33;20020;-72
2021/05/25 00:26:10;;;;;;;;;;;9.60;90.60;;;;;;4305673;33;20017;-72
2021/05/25 00:28:38;;;;;;;;;;;9.60;90.70;;;;;;4318124;33;20043;-72
2021/05/25 00:31:05;;;;;;;;;;;9.50;90.80;;;;;;4317944;33;24563;-72
2021/05/25 00:33:32;;;;;;;;;;;9.50;90.90;;;;;;4305048;33;20013;-72
2021/05/25 00:35:59;;;;;;;;;;;9.50;90.80;;;;;;4305613;33;20006;-72
2021/05/25 00:38:26;;;;;;;;;;;9.50;90.80;;;;;;4305126;33;20131;-72
2021/05/25 00:40:54;;;;;;;;;;;9.60;90.80;;;;;;4318219;33;19994;-72
2021/05/25 00:43:21;;;;;;;;;;;9.60;91.00;;;;;;4317906;33;20005;-72
2021/05/25 00:45:48;;;;;;;;;;;9.60;91.00;;;;;;4317975;33;20049;-72
2021/05/25 00:48:15;;;;;;;;;;;9.60;91.00;;;;;;4304859;33;25658;-72
2021/05/25 00:50:42;;;;;;;;;;;9.60;91.10;;;;;;4318004;33;22415;-73
2021/05/25 00:53:10;;;;;;;;;;;9.60;90.90;;;;;;4318450;33;19997;-72
2021/05/25 00:55:38;;;;;;;;;;;9.60;90.80;;;;;;4318177;33;20107;-72
2021/05/25 00:58:06;;;;;;;;;;;9.70;90.70;;;;;;4318109;33;20006;-72
2021/05/25 01:00:38;;;;;;;;;;;9.70;90.60;;;;;;4317928;33;22234;-72
2021/05/25 01:03:06;;;;;;;;;;;9.70;90.60;;;;;;4304141;33;26672;-72
2021/05/25 01:05:33;;;;;;;;;;;9.70;90.60;;;;;;4318101;33;20009;-71
2021/05/25 01:08:01;;;;;;;;;;;9.70;90.70;;;;;;4317551;33;20049;-72
2021/05/25 01:10:31;;;;;;;;;;;9.70;90.80;;;;;;4317434;33;25049;-72
2021/05/25 01:13:02;;;;;;;;;;;9.70;90.80;;;;;;4318025;33;20048;-72
2021/05/25 01:15:31;;;;;;;;;;;9.70;90.80;;;;;;4318132;33;20014;-72
2021/05/25 01:17:58;;;;;;;;;;;9.70;90.90;;;;;;4317359;33;29680;-71
2021/05/25 01:20:27;;;;;;;;;;;9.70;90.90;;;;;;4304028;33;25742;-72
2021/05/25 01:22:55;;;;;;;;;;;9.70;90.90;;;;;;4304014;33;20695;-72
2021/05/25 01:25:22;;;;;;;;;;;9.70;91.00;;;;;;4304244;33;29021;-72
2021/05/25 01:27:53;;;;;;;;;;;9.70;91.10;;;;;;4317462;33;20390;-72
2021/05/25 01:30:21;;;;;;;;;;;9.70;91.10;;;;;;4317370;33;25937;-72
2021/05/25 01:32:48;;;;;;;;;;;9.80;90.90;;;;;;4304737;33;20441;-72
2021/05/25 01:35:15;;;;;;;;;;;9.80;91.00;;;;;;4303987;33;20056;-72
2021/05/25 01:37:43;;;;;;;;;;;9.80;90.80;;;;;;4317597;33;20052;-73
2021/05/25 01:40:10;;;;;;;;;;;9.80;90.90;;;;;;4317423;33;20014;-72
2021/05/25 01:42:38;;;;;;;;;;;9.80;90.90;;;;;;4317106;33;25240;-72
2021/05/25 01:45:10;;;;;;;;;;;9.80;90.90;;;;;;4317077;33;23218;-72
2021/05/25 01:47:37;;;;;;;;;;;9.80;91.00;;;;;;4317632;33;20395;-72
2021/05/25 01:50:14;;;;;;;;;;;9.80;91.00;;;;;;4317185;33;21986;-72
2021/05/25 01:52:48;;;;;;;;;;;9.80;91.00;;;;;;4317459;33;20376;-72
2021/05/25 01:55:25;;;;;;;;;;;9.80;90.90;;;;;;4292284;33;19998;-72
2021/05/25 01:57:53;;;;;;;;;;;9.80;91.00;;;;;;4304429;33;20024;-72
2021/05/25 02:00:20;;;;;;;;;;;9.80;90.90;;;;;;4303470;33;26214;-72
2021/05/25 02:02:47;;;;;;;;;;;9.80;90.90;;;;;;4317047;33;20437;-72
2021/05/25 02:05:14;;;;;;;;;;;9.80;91.00;;;;;;4317101;33;20021;-72
2021/05/25 02:07:45;;;;;;;;;;;9.80;91.20;;;;;;4304074;33;20018;-72
2021/05/25 02:10:22;;;;;;;;;;;9.80;91.40;;;;;;4317572;33;20015;-72
2021/05/25 02:12:52;;;;;;;;;;;9.70;91.30;;;;;;4316303;33;27616;-72
2021/05/25 02:15:19;;;;;;;;;;;9.70;91.30;;;;;;4317191;33;20014;-72
2021/05/25 02:17:48;;;;;;;;;;;9.70;91.30;;;;;;4316678;33;21276;-72
2021/05/25 02:20:15;;;;;;;;;;;9.80;91.30;;;;;;4316585;33;24145;-72
2021/05/25 02:22:45;;;;;;;;;;;9.80;91.20;;;;;;4316739;33;26639;-72
2021/05/25 02:25:12;;;;;;;;;;;9.80;91.20;;;;;;4303360;33;20897;-72
2021/05/25 02:27:39;;;;;;;;;;;9.80;91.20;;;;;;4304019;33;23938;-72
2021/05/25 02:30:06;;;;;;;;;;;9.90;91.10;;;;;;4316552;33;20049;-72
2021/05/25 02:32:33;;;;;;;;;;;9.90;91.10;;;;;;4316401;33;25521;-72
2021/05/25 02:35:04;;;;;;;;;;;9.90;91.10;;;;;;4316884;33;20024;-72
2021/05/25 02:37:32;;;;;;;;;;;9.90;91.20;;;;;;4316781;33;20048;-72
2021/05/25 02:40:00;;;;;;;;;;;9.80;91.10;;;;;;4316291;33;22769;-72
2021/05/25 02:42:27;;;;;;;;;;;9.80;91.20;;;;;;4303712;33;20091;-72
2021/05/25 02:44:54;;;;;;;;;;;9.80;91.20;;;;;;4291663;33;20016;-72
2021/05/25 02:47:21;;;;;;;;;;;9.80;91.20;;;;;;4316999;33;20010;-72
2021/05/25 02:49:48;;;;;;;;;;;9.80;91.20;;;;;;4317242;33;20370;-72
2021/05/25 02:52:16;;;;;;;;;;;9.90;91.10;;;;;;4303745;33;20379;-72
2021/05/25 02:54:43;;;;;;;;;;;9.90;91.20;;;;;;4316097;33;26082;-72
2021/05/25 02:57:10;;;;;;;;;;;9.80;91.20;;;;;;4316351;33;20010;-72
2021/05/25 02:59:37;;;;;;;;;;;9.90;91.10;;;;;;4316183;33;28438;-72
2021/05/25 03:02:04;;;;;;;;;;;9.90;91.10;;;;;;4316214;33;22323;-73
2021/05/25 03:04:31;;;;;;;;;;;9.90;91.20;;;;;;4316470;33;21509;-73
2021/05/25 03:06:58;;;;;;;;;;;9.80;91.30;;;;;;4317100;33;20016;-73
2021/05/25 03:09:29;;;;;;;;;;;9.80;91.40;;;;;;4317085;33;20107;-73
2021/05/25 03:11:56;;;;;;;;;;;9.80;91.50;;;;;;4317104;33;20378;-73
2021/05/25 03:14:26;;;;;;;;;;;9.70;91.60;;;;;;4302868;33;27904;-72
2021/05/25 03:16:53;;;;;;;;;;;9.70;91.60;;;;;;4316419;33;23136;-72
2021/05/25 03:19:20;;;;;;;;;;;9.70;91.70;;;;;;4303011;33;27295;-72
2021/05/25 03:21:47;;;;;;;;;;;9.70;91.70;;;;;;4302888;33;26840;-73
2021/05/25 03:24:17;;;;;;;;;;;9.70;91.60;;;;;;4316302;33;20010;-73
2021/05/25 03:26:44;;;;;;;;;;;9.70;91.70;;;;;;4302765;33;29824;-73
2021/05/25 03:29:11;;;;;;;;;;;9.70;91.70;;;;;;4303103;33;20001;-72
2021/05/25 03:31:38;;;;;;;;;;;9.70;91.60;;;;;;4316569;33;20076;-72
2021/05/25 03:34:05;;;;;;;;;;;9.70;91.70;;;;;;4316130;33;27222;-72
2021/05/25 03:36:32;;;;;;;;;;;9.70;91.70;;;;;;4318155;33;20018;-73
2021/05/25 03:39:02;;;;;;;;;;;9.70;91.70;;;;;;4305416;33;26884;-73
2021/05/25 03:41:30;;;;;;;;;;;9.70;91.70;;;;;;4318896;33;20009;-72
2021/05/25 03:43:58;;;;;;;;;;;9.70;91.70;;;;;;4319412;33;20193;-72
2021/05/25 03:46:26;;;;;;;;;;;9.70;91.70;;;;;;4318748;33;22764;-72
2021/05/25 03:48:53;;;;;;;;;;;9.70;91.70;;;;;;4305247;33;27289;-73
2021/05/25 03:51:21;;;;;;;;;;;9.70;92.10;;;;;;4318896;33;23801;-72
2021/05/25 03:53:50;;;;;;;;;;;9.70;91.70;;;;;;4305253;33;20114;-73
2021/05/25 03:56:24;;;;;;;;;;;9.70;91.70;;;;;;4305675;33;21959;-73
2021/05/25 03:58:53;;;;;;;;;;;9.70;91.70;;;;;;4319303;33;20006;-72
2021/05/25 04:01:27;;;;;;;;;;;9.70;91.70;;;;;;4318947;33;20395;-72
2021/05/25 04:03:55;;;;;;;;;;;9.70;91.80;;;;;;4319015;33;20006;-73
2021/05/25 04:06:23;;;;;;;;;;;9.60;91.90;;;;;;4318266;33;26248;-72
2021/05/25 04:08:50;;;;;;;;;;;9.60;91.80;;;;;;4318353;33;24122;-73
2021/05/25 04:11:17;;;;;;;;;;;9.70;91.80;;;;;;4318587;33;20014;-73
2021/05/25 04:13:44;;;;;;;;;;;9.70;91.80;;;;;;4305338;33;23381;-73
2021/05/25 04:16:13;;;;;;;;;;;9.70;91.70;;;;;;4305132;33;20024;-72
2021/05/25 04:18:40;;;;;;;;;;;9.70;91.70;;;;;;4305487;33;20009;-72
2021/05/25 04:21:08;;;;;;;;;;;9.70;91.70;;;;;;4318752;33;20405;-73
2021/05/25 04:23:36;;;;;;;;;;;9.70;91.70;;;;;;4318924;33;20016;-73
2021/05/25 04:26:03;;;;;;;;;;;9.70;91.60;;;;;;4318312;33;21334;-73
2021/05/25 04:28:30;;;;;;;;;;;9.80;91.70;;;;;;4317950;33;21571;-73
2021/05/25 04:30:57;;;;;;;;;;;9.80;91.70;;;;;;4318063;33;28463;-72
2021/05/25 04:33:27;;;;;;;;;;;9.80;91.70;;;;;;4318270;33;21062;-72
2021/05/25 04:35:54;;;;;;;;;;;9.70;91.80;;;;;;4317955;33;24243;-73
2021/05/25 04:38:21;;;;;;;;;;;9.70;91.90;;;;;;4305156;33;20033;-72
2021/05/25 04:40:48;;;;;;;;;;;9.70;92.20;;;;;;4317823;33;29998;-72
2021/05/25 04:43:16;;;;;;;;;;;9.60;91.90;;;;;;4305012;33;24513;-73
2021/05/25 04:45:44;;;;;;;;;;;9.60;91.80;;;;;;4304647;33;20010;-72
2021/05/25 04:48:11;;;;;;;;;;;9.70;91.80;;;;;;4317626;33;20018;-72
2021/05/25 04:50:38;;;;;;;;;;;9.70;91.90;;;;;;4292949;33;20066;-72
2021/05/25 04:53:06;;;;;;;;;;;9.70;91.90;;;;;;4304710;33;26224;-72
2021/05/25 04:55:33;;;;;;;;;;;9.70;91.90;;;;;;4305028;33;20018;-73
2021/05/25 04:58:00;;;;;;;;;;;9.70;91.90;;;;;;4318100;33;20021;-72
2021/05/25 05:00:28;;;;;;;;;;;9.60;91.80;;;;;;4317224;33;29026;-73
2021/05/25 05:02:55;;;;;;;;;;;9.70;91.80;;;;;;4317623;33;20026;-72
2021/05/25 05:05:23;;;;;;;;;;;9.70;92.00;;;;;;4318030;33;20024;-72
2021/05/25 05:07:50;;;;;;;;;;;9.60;92.10;;;;;;4304810;33;21587;-73
2021/05/25 05:10:18;;;;;;;;;;;9.60;92.10;;;;;;4304429;33;24848;-73
2021/05/25 05:12:45;;;;;;;;;;;9.60;92.00;;;;;;4317888;33;20678;-73
2021/05/25 05:15:13;;;;;;;;;;;9.60;92.00;;;;;;4317440;33;20002;-72
2021/05/25 05:17:41;;;;;;;;;;;9.70;91.90;;;;;;4317792;33;20072;-72
2021/05/25 05:20:09;;;;;;;;;;;9.70;91.80;;;;;;4304211;33;27593;-72
2021/05/25 05:22:37;;;;;;;;;;;9.70;91.90;;;;;;4317247;33;27946;-72
2021/05/25 05:25:06;;;;;;;;;;;9.70;91.80;;;;;;4304247;33;20045;-72
2021/05/25 05:27:33;;;;;;;;;;;9.70;91.90;;;;;;4317327;33;20968;-72
2021/05/25 05:30:00;;;;;;;;;;;9.70;91.90;;;;;;4317619;33;20366;-72
2021/05/25 05:32:27;;;;;;;;;;;9.70;91.90;;;;;;4317345;33;25941;-72
2021/05/25 05:34:54;;;;;;;;;;;9.70;92.00;;;;;;4317365;33;20024;-72
2021/05/25 05:37:21;;;;;;;;;;;9.70;92.00;;;;;;4317455;33;20009;-72
2021/05/25 05:39:48;;;;;;;;;;;9.60;92.10;;;;;;4305057;33;20069;-72
2021/05/25 05:42:15;;;;;;;;;;;9.60;92.20;;;;;;4303868;33;20887;-72
2021/05/25 05:44:44;;;;;;;;;;;9.70;92.20;;;;;;4317279;33;20025;-72
2021/05/25 05:47:11;;;;;;;;;;;9.60;92.20;;;;;;4317262;33;20002;-72
2021/05/25 05:49:39;;;;;;;;;;;9.70;92.20;;;;;;4304224;33;20072;-72
2021/05/25 05:52:06;;;;;;;;;;;9.70;92.20;;;;;;4317270;33;25221;-71
2021/05/25 05:54:33;;;;;;;;;;;9.70;92.20;;;;;;4316915;33;20028;-72
2021/05/25 05:57:00;;;;;;;;;;;9.70;92.30;;;;;;4317476;33;20026;-72
2021/05/25 05:59:27;;;;;;;;;;;9.70;92.40;;;;;;4317065;33;20005;-72
2021/05/25 06:01:54;;;;;;;;;;;9.70;92.40;;;;;;4316632;33;24255;-72
2021/05/25 06:04:22;;;;;;;;;;;9.70;92.40;;;;;;4316573;33;20037;-72
2021/05/25 06:06:49;;;;;;;;;;;9.80;92.40;;;;;;4304480;33;20006;-71
2021/05/25 06:09:16;;;;;;;;;;;9.80;92.50;;;;;;4303931;33;20023;-71
2021/05/25 06:11:44;;;;;;;;;;;9.80;92.70;;;;;;4316597;33;26113;-71
2021/05/25 06:14:11;;;;;;;;;;;9.80;92.60;;;;;;4316712;33;20605;-71
2021/05/25 06:16:39;;;;;;;;;;;9.80;92.50;;;;;;4303668;33;22307;-71
2021/05/25 06:19:06;;;;;;;;;;;9.80;92.50;;;;;;4316835;33;22707;-72
2021/05/25 06:21:33;;;;;;;;;;;9.80;92.50;;;;;;4317036;33;22029;-72
2021/05/25 06:24:00;;;;;;;;;;;9.80;92.50;;;;;;4317357;33;20002;-71
2021/05/25 06:26:27;;;;;;;;;;;9.80;92.60;;;;;;4316601;33;20437;-71
2021/05/25 06:28:54;;;;;;;;;;;9.80;92.60;;;;;;4316562;33;23431;-71
2021/05/25 06:31:21;;;;;;;;;;;9.80;92.60;;;;;;4316639;33;24664;-72
2021/05/25 06:33:48;;;;;;;;;;;9.80;92.70;;;;;;4317100;33;20006;-71
2021/05/25 06:36:15;;;;;;;;;;;9.80;93.00;;;;;;4303971;33;21469;-71
2021/05/25 06:38:42;;;;;;;;;;;9.80;92.80;;;;;;4317334;33;20006;-71
2021/05/25 06:41:09;;;;;;;;;;;9.80;92.80;;;;;;4316672;33;20020;-71
2021/05/25 06:43:36;;;;;;;;;;;9.80;92.90;;;;;;4316884;33;20021;-71
2021/05/25 06:46:05;;;;;;;;;;;9.80;92.80;;;;;;4316731;33;21400;-71
2021/05/25 06:48:33;;;;;;;;;;;9.90;92.70;;;;;;4304132;33;20013;-71
2021/05/25 06:51:04;;;;;;;;;;;9.90;92.80;;;;;;4302876;33;30432;-71
2021/05/25 06:53:31;;;;;;;;;;;9.90;92.90;;;;;;4316445;33;22548;-71
2021/05/25 06:55:58;;;;;;;;;;;9.90;92.80;;;;;;4316576;33;25541;-71
2021/05/25 06:58:25;;;;;;;;;;;9.90;92.70;;;;;;4303598;33;20014;-71
2021/05/25 07:00:52;;;;;;;;;;;9.90;93.00;;;;;;4316380;33;24389;-72
2021/05/25 07:03:19;;;;;;;;;;;9.90;92.90;;;;;;4302622;33;32566;-71
2021/05/25 07:05:46;;;;;;;;;;;9.90;92.90;;;;;;4316281;33;20645;-71
2021/05/25 07:08:14;;;;;;;;;;;9.90;93.00;;;;;;4316273;33;20758;-71
2021/05/25 07:10:41;;;;;;;;;;;9.90;92.80;;;;;;4317555;33;22259;-71
2021/05/25 07:13:11;;;;;;;;;;;9.90;92.90;;;;;;4319178;33;26948;-71
2021/05/25 07:15:38;;;;;;;;;;;10.00;92.90;;;;;;4306038;33;26102;-71
2021/05/25 07:18:05;;;;;;;;;;;10.00;92.90;;;;;;4319495;33;20005;-71
2021/05/25 07:20:33;;;;;;;;;;;10.00;93.00;;;;;;4319865;33;20016;-71
2021/05/25 07:23:00;;;;;;;;;;;10.00;92.90;;;;;;4306077;33;20146;-71
2021/05/25 07:25:28;;;;;;;;;;;9.90;92.90;;;;;;4319333;33;20017;-71
2021/05/25 07:27:55;;;;;;;;;;;10.00;93.00;;;;;;4306091;33;20018;-72
2021/05/25 07:30:22;;;;;;;;;;;10.00;93.00;;;;;;4318433;33;30804;-71
2021/05/25 07:32:49;;;;;;;;;;;10.00;93.00;;;;;;4318607;33;26467;-71
2021/05/25 07:35:16;;;;;;;;;;;9.90;93.00;;;;;;4319233;33;20072;-71
2021/05/25 07:37:43;;;;;;;;;;;9.90;93.00;;;;;;4318719;33;25585;-71
2021/05/25 07:40:12;;;;;;;;;;;9.90;92.90;;;;;;4318877;33;21016;-72
2021/05/25 07:42:39;;;;;;;;;;;9.90;93.00;;;;;;4319488;33;20076;-72
2021/05/25 07:45:07;;;;;;;;;;;9.90;93.00;;;;;;4306007;33;20054;-71
2021/05/25 07:47:34;;;;;;;;;;;9.90;92.90;;;;;;4318907;33;21321;-71
2021/05/25 07:50:13;;;;;;;;;;;9.90;93.00;;;;;;4305739;33;20343;-71
2021/05/25 07:52:47;;;;;;;;;;;9.90;92.90;;;;;;4319422;33;20019;-71
2021/05/25 07:55:16;;;;;;;;;;;9.90;92.90;;;;;;4318871;33;20005;-72
2021/05/25 07:57:43;;;;;;;;;;;10.00;92.80;;;;;;4318694;33;28746;-71
2021/05/25 08:00:12;;;;;;;;;;;10.00;92.90;;;;;;4318927;33;20009;-71
2021/05/25 08:02:39;;;;;;;;;;;10.00;92.90;;;;;;4304468;33;32872;-71
2021/05/25 08:05:07;;;;;;;;;;;10.00;93.00;;;;;;4305290;33;21259;-71
2021/05/25 08:07:35;;;;;;;;;;;9.90;93.30;;;;;;4318762;33;20022;-71
2021/05/25 08:10:05;;;;;;;;;;;9.90;92.90;;;;;;4318478;33;25643;-71
2021/05/25 08:12:32;;;;;;;;;;;9.90;92.90;;;;;;4318398;33;20010;-71
2021/05/25 08:15:02;;;;;;;;;;;9.90;93.00;;;;;;4318828;33;20073;-71
2021/05/25 08:20:19;;;;;;;;;;;10.00;93.10;;;;;;4319168;33;20048;-71
2021/05/25 08:23:09;;;;;;;;;;;10.00;93.00;;;;;;4306739;33;20018;-71
2021/05/25 08:25:37;;;;;;;;;;;9.90;93.10;;;;;;4318230;33;20053;-71
2021/05/25 08:28:05;;;;;;;;;;;10.00;93.10;;;;;;4318430;33;20654;-71
2021/05/25 08:30:34;;;;;;;;;;;10.00;93.10;;;;;;4318203;33;22928;-71
2021/05/25 08:33:02;;;;;;;;;;;10.00;93.10;;;;;;4318339;33;20013;-71
2021/05/25 08:35:34;;;;;;;;;;;10.00;93.30;;;;;;4317961;33;20069;-72
2021/05/25 08:38:02;;;;;;;;;;;10.10;93.20;;;;;;4318672;33;20021;-71
2021/05/25 08:40:30;;;;;;;;;;;10.00;93.10;;;;;;4317913;33;23475;-71
2021/05/25 08:42:57;;;;;;;;;;;10.10;93.20;;;;;;4304910;33;28361;-72
2021/05/25 08:45:25;;;;;;;;;;;10.10;93.50;;;;;;4304848;33;26230;-72
2021/05/25 08:47:53;;;;;;;;;;;10.10;93.10;;;;;;4304605;33;22042;-71
2021/05/25 08:50:33;;;;;;;;;;;10.10;93.20;;;;;;4318021;33;27257;-71
2021/05/25 08:53:02;;;;;;;;;;;10.20;93.30;;;;;;4318201;33;20021;-71
2021/05/25 08:55:30;;;;;;;;;;;10.20;93.20;;;;;;4317643;33;27539;-71
2021/05/25 08:58:00;;;;;;;;;;;10.10;93.30;;;;;;4304412;33;26612;-71
2021/05/25 09:00:27;;;;;;;;;;;10.20;93.40;;;;;;4317542;33;20017;-72
2021/05/25 09:02:55;;;;;;;;;;;10.10;93.30;;;;;;4317858;33;20024;-71
2021/05/25 09:05:24;;;;;;;;;;;10.20;93.40;;;;;;4304429;33;27085;-71
2021/05/25 09:07:58;;;;;;;;;;;10.20;93.50;;;;;;4317913;33;20023;-71
2021/05/25 09:10:47;;;;;;;;;;;10.20;93.50;;;;;;4317731;33;22463;-72
2021/05/25 09:13:16;;;;;;;;;;;10.20;93.50;;;;;;4317868;33;20075;-72
2021/05/25 09:15:47;;;;;;;;;;;10.20;93.60;;;;;;4317423;33;29588;-71
2021/05/25 09:18:15;;;;;;;;;;;10.30;93.60;;;;;;4317962;33;20009;-71
2021/05/25 09:20:53;;;;;;;;;;;10.30;93.50;;;;;;4317483;33;21798;-72
2021/05/25 09:23:45;;;;;;;;;;;10.30;93.70;;;;;;4304524;33;22852;-72
2021/05/25 09:26:15;;;;;;;;;;;10.30;93.70;;;;;;4304701;33;20053;-72
2021/05/25 09:28:56;;;;;;;;;;;10.40;93.60;;;;;;4304896;33;20426;-72
2021/05/25 09:31:35;;;;;;;;;;;10.40;93.60;;;;;;4317330;33;22926;-72
2021/05/25 09:34:13;;;;;;;;;;;10.40;93.60;;;;;;4317165;33;22479;-71
2021/05/25 09:36:59;;;;;;;;;;;10.50;93.60;;;;;;4317200;33;27460;-72
2021/05/25 09:39:26;;;;;;;;;;;10.60;93.50;;;;;;4304557;33;20025;-71
2021/05/25 09:41:56;;;;;;;;;;;10.60;93.50;;;;;;4317304;33;20001;-72
2021/05/25 09:44:24;;;;;;;;;;;10.70;93.40;;;;;;4317715;33;20018;-72
2021/05/25 09:46:51;;;;;;;;;;;10.70;93.70;;;;;;4317144;33;25204;-72
2021/05/25 09:49:20;;;;;;;;;;;10.70;93.80;;;;;;4304351;33;20020;-71
2021/05/25 09:51:47;;;;;;;;;;;10.80;93.60;;;;;;4317559;33;20035;-72
2021/05/25 09:54:21;;;;;;;;;;;10.80;93.40;;;;;;4316692;33;22254;-71
2021/05/25 09:56:59;;;;;;;;;;;10.90;93.60;;;;;;4317397;33;20072;-71
2021/05/25 09:59:38;;;;;;;;;;;10.90;93.40;;;;;;4317015;33;22625;-71
2021/05/25 10:02:19;;;;;;;;;;;11.00;93.40;;;;;;4303953;33;20025;-71
2021/05/25 10:04:59;;;;;;;;;;;11.10;93.30;;;;;;4317008;33;25052;-71
2021/05/25 10:07:27;;;;;;;;;;;11.10;93.30;;;;;;4317680;33;20010;-71
2021/05/25 10:09:57;;;;;;;;;;;11.20;93.10;;;;;;4304098;33;21093;-71
2021/05/25 10:12:28;;;;;;;;;;;11.30;93.00;;;;;;4316770;33;21490;-70
2021/05/25 10:14:56;;;;;;;;;;;11.30;92.90;;;;;;4317503;33;20016;-71
2021/05/25 10:20:00;;;;;;;;;;;11.30;92.70;;;;;;4317099;33;20065;-71
2021/05/25 10:22:27;;;;;;;;;;;11.40;92.50;;;;;;4303471;33;20015;-72
2021/05/25 10:24:54;;;;;;;;;;;11.40;92.50;;;;;;4303919;33;20040;-76
2021/05/25 10:27:22;;;;;;;;;;;11.50;92.30;;;;;;4317194;33;20002;-71
2021/05/25 10:29:49;;;;;;;;;;;11.60;92.20;;;;;;4303955;33;20458;-71
2021/05/25 10:32:20;;;;;;;;;;;11.60;92.00;;;;;;4316478;33;20005;-72
2021/05/25 10:34:50;;;;;;;;;;;11.70;92.00;;;;;;4316668;33;20013;-71
2021/05/25 10:37:17;;;;;;;;;;;11.70;92.00;;;;;;4291089;33;27311;-71
2021/05/25 10:39:45;;;;;;;;;;;11.70;91.90;;;;;;4316413;33;26866;-71
2021/05/25 10:42:31;;;;;;;;;;;11.70;91.80;;;;;;4316493;33;26691;-71
2021/05/25 10:45:18;;;;;;;;;;;11.70;92.10;;;;;;4317643;33;20699;-72
2021/05/25 10:47:56;;;;;;;;;;;11.80;92.10;;;;;;4319612;33;22509;-72
2021/05/25 10:52:54;;;;;;;;;;;11.90;92.00;;;;;;4319598;33;20391;-71
2021/05/25 10:55:48;;;;;;;;;;;11.90;91.90;;;;;;4319748;33;20375;-71
2021/05/25 10:58:20;;;;;;;;;;;11.90;91.80;;;;;;4312699;33;20040;-74
2021/05/25 11:00:52;;;;;;;;;;;11.90;92.00;;;;;;4320136;33;20014;-71
2021/05/25 11:03:20;;;;;;;;;;;12.00;91.90;;;;;;4319117;33;22220;-72
2021/05/25 11:06:08;;;;;;;;;;;12.00;91.60;;;;;;4319259;33;20028;-71
2021/05/25 11:08:37;;;;;;;;;;;12.00;91.50;;;;;;4319627;33;24428;-71
2021/05/25 11:11:11;;;;;;;;;;;11.90;91.20;;;;;;4319134;33;24303;-71
2021/05/25 11:13:42;;;;;;;;;;;11.90;91.00;;;;;;4306187;33;20470;-71
2021/05/25 11:16:13;;;;;;;;;;;11.90;90.70;;;;;;4305559;33;29129;-71
2021/05/25 11:24:44;;;;;;;;;;;11.80;90.90;;;;;;4319950;33;20065;-72
2021/05/25 11:27:27;;;;;;;;;;;11.70;90.40;;;;;;4319231;33;21741;-71
2021/05/25 11:30:07;;;;;;;;;;;11.70;90.80;;;;;;4319731;33;20009;-72
2021/05/25 11:32:46;;;;;;;;;;;11.70;90.90;;;;;;4306561;33;20017;-71
2021/05/25 11:35:13;;;;;;;;;;;11.70;90.90;;;;;;4305545;33;29779;-71
2021/05/25 11:37:42;;;;;;;;;;;11.60;90.90;;;;;;4318648;33;25812;-71
2021/05/25 11:40:12;;;;;;;;;;;11.60;91.00;;;;;;4319381;33;20020;-71
2021/05/25 11:42:41;;;;;;;;;;;11.60;90.90;;;;;;4318968;33;20852;-71
2021/05/25 11:45:09;;;;;;;;;;;11.60;91.00;;;;;;4318692;33;27011;-71
2021/05/25 11:47:37;;;;;;;;;;;11.60;91.10;;;;;;4318317;33;26944;-71
2021/05/25 11:50:04;;;;;;;;;;;11.60;91.10;;;;;;4306137;33;20013;-71
2021/05/25 11:52:52;;;;;;;;;;;11.60;91.10;;;;;;4319641;33;20466;-70
2021/05/25 11:55:19;;;;;;;;;;;11.50;91.20;;;;;;4305238;33;26066;-70
2021/05/25 11:57:51;;;;;;;;;;;11.50;91.20;;;;;;4306060;33;20006;-71
2021/05/25 12:00:18;;;;;;;;;;;11.50;91.10;;;;;;4319191;33;22610;-70
2021/05/25 12:02:46;;;;;;;;;;;11.50;91.20;;;;;;4318194;33;28978;-70
2021/05/25 12:05:18;;;;;;;;;;;11.60;91.20;;;;;;4319185;33;20010;-70
2021/05/25 12:07:47;;;;;;;;;;;11.60;91.20;;;;;;4318830;33;20076;-70
2021/05/25 12:10:16;;;;;;;;;;;11.60;91.10;;;;;;4318557;33;20002;-70
2021/05/25 12:12:45;;;;;;;;;;;11.60;91.10;;;;;;4318556;33;27067;-70
2021/05/25 12:15:13;;;;;;;;;;;11.60;91.10;;;;;;4304799;33;31567;-70
2021/05/25 12:17:41;;;;;;;;;;;11.60;91.00;;;;;;4318302;33;20243;-70
2021/05/25 12:20:09;;;;;;;;;;;11.60;91.10;;;;;;4318652;33;20005;-70
2021/05/25 12:22:38;;;;;;;;;;;11.60;91.20;;;;;;4318390;33;20308;-70
2021/05/25 12:25:17;;;;;;;;;;;11.50;91.40;;;;;;4318475;33;20899;-71
2021/05/25 12:27:48;;;;;;;;;;;11.50;91.50;;;;;;4317872;33;30357;-70
2021/05/25 12:30:17;;;;;;;;;;;11.50;91.60;;;;;;4318681;33;20458;-70
2021/05/25 12:32:44;;;;;;;;;;;11.50;91.70;;;;;;4318346;33;23687;-70
2021/05/25 12:35:12;;;;;;;;;;;11.50;91.70;;;;;;4318006;33;27416;-70
2021/05/25 12:37:41;;;;;;;;;;;11.50;91.70;;;;;;4318379;33;20038;-70
2021/05/25 12:40:09;;;;;;;;;;;11.60;92.10;;;;;;4318362;33;20002;-75
2021/05/25 12:42:43;;;;;;;;;;;11.60;91.80;;;;;;4305284;33;20010;-70
2021/05/25 12:45:14;;;;;;;;;;;11.70;91.60;;;;;;4318248;33;21774;-70
2021/05/25 12:47:52;;;;;;;;;;;11.70;91.40;;;;;;4318475;33;20075;-70
2021/05/25 12:50:32;;;;;;;;;;;11.70;91.20;;;;;;4318328;33;20017;-70
2021/05/25 12:53:05;;;;;;;;;;;11.70;91.40;;;;;;4317978;33;24871;-71
2021/05/25 12:55:33;;;;;;;;;;;11.80;91.40;;;;;;4317958;33;21355;-71
2021/05/25 12:58:00;;;;;;;;;;;11.80;91.40;;;;;;4318005;33;20044;-71
2021/05/25 13:00:29;;;;;;;;;;;11.90;91.50;;;;;;4317849;33;20040;-71
2021/05/25 13:02:57;;;;;;;;;;;11.90;91.50;;;;;;4317297;33;20868;-72
2021/05/25 13:05:29;;;;;;;;;;;11.90;91.30;;;;;;4304793;33;20009;-79
2021/05/25 13:08:04;;;;;;;;;;;12.00;91.30;;;;;;4317304;33;20049;-71
2021/05/25 13:10:33;;;;;;;;;;;11.90;90.90;;;;;;4304601;33;24079;-71
2021/05/25 13:13:07;;;;;;;;;;;11.90;90.90;;;;;;4318261;33;20013;-77
2021/05/25 13:15:54;;;;;;;;;;;11.90;90.80;;;;;;4317061;33;26826;-73
2021/05/25 13:18:37;;;;;;;;;;;11.90;90.80;;;;;;4317767;33;20584;-75
2021/05/25 13:21:04;;;;;;;;;;;11.90;90.90;;;;;;4317764;33;20018;-74
2021/05/25 13:23:32;;;;;;;;;;;11.90;90.90;;;;;;4317566;33;20073;-75
2021/05/25 13:26:09;;;;;;;;;;;11.90;90.80;;;;;;4304920;33;20018;-72
2021/05/25 13:28:52;;;;;;;;;;;11.80;90.90;;;;;;4317409;33;25452;-72
2021/05/25 13:31:24;;;;;;;;;;;11.80;91.00;;;;;;4317411;33;20072;-71
2021/05/25 13:33:52;;;;;;;;;;;11.90;90.70;;;;;;4317951;33;20022;-71
2021/05/25 13:36:20;;;;;;;;;;;11.90;91.00;;;;;;4317179;33;20013;-71
2021/05/25 13:38:48;;;;;;;;;;;11.90;90.90;;;;;;4318141;33;20006;-71
2021/05/25 13:41:17;;;;;;;;;;;11.90;90.80;;;;;;4317243;33;20020;-71
2021/05/25 13:43:47;;;;;;;;;;;11.90;91.20;;;;;;4304123;33;20010;-71
2021/05/25 13:46:14;;;;;;;;;;;11.80;91.00;;;;;;4304367;33;20383;-71
2021/05/25 13:48:42;;;;;;;;;;;11.80;91.00;;;;;;4317001;33;28679;-71
2021/05/25 13:51:09;;;;;;;;;;;11.80;91.10;;;;;;4317109;33;20021;-71
2021/05/25 13:53:36;;;;;;;;;;;11.90;91.30;;;;;;4316726;33;26888;-72
2021/05/25 13:56:11;;;;;;;;;;;11.80;91.10;;;;;;4317030;33;20028;-71
2021/05/25 13:58:39;;;;;;;;;;;11.70;91.10;;;;;;4304081;33;23253;-70
2021/05/25 14:03:46;;;;;;;;;;;11.60;91.10;;;;;;4316712;33;25522;-70
2021/05/25 14:06:14;;;;;;;;;;;11.50;91.10;;;;;;4317437;33;20012;-70
2021/05/25 14:08:41;;;;;;;;;;;11.50;91.20;;;;;;4316970;33;27964;-70
2021/05/25 14:11:09;;;;;;;;;;;11.50;91.40;;;;;;4316803;33;23571;-70
2021/05/25 14:13:37;;;;;;;;;;;11.50;91.50;;;;;;4316889;33;23982;-70
2021/05/25 14:16:04;;;;;;;;;;;11.50;91.50;;;;;;4316618;33;31991;-70
2021/05/25 14:18:31;;;;;;;;;;;11.50;91.60;;;;;;4316530;33;25347;-70
2021/05/25 14:20:58;;;;;;;;;;;11.50;91.60;;;;;;4316769;33;29912;-70
2021/05/25 14:23:25;;;;;;;;;;;11.50;91.60;;;;;;4316923;33;20557;-70
2021/05/25 14:25:52;;;;;;;;;;;11.60;91.60;;;;;;4316736;33;21941;-70
2021/05/25 14:28:21;;;;;;;;;;;11.60;91.60;;;;;;4316473;33;30521;-70
2021/05/25 14:30:48;;;;;;;;;;;11.60;91.60;;;;;;4304049;33;20014;-70
2021/05/25 14:33:18;;;;;;;;;;;11.60;91.40;;;;;;4316790;33;23373;-72
2021/05/25 14:35:45;;;;;;;;;;;11.70;91.50;;;;;;4316468;33;23929;-70
2021/05/25 14:38:13;;;;;;;;;;;11.60;91.30;;;;;;4316488;33;23622;-70
2021/05/25 14:40:41;;;;;;;;;;;11.60;91.30;;;;;;4316687;33;21660;-70
2021/05/25 14:43:08;;;;;;;;;;;11.60;91.30;;;;;;4302999;33;28620;-70
2021/05/25 14:45:35;;;;;;;;;;;11.70;91.30;;;;;;4316148;33;29668;-70
2021/05/25 14:48:02;;;;;;;;;;;11.60;91.40;;;;;;4316626;33;26956;-70
2021/05/25 14:50:31;;;;;;;;;;;11.60;91.40;;;;;;4316520;33;20020;-70
2021/05/25 14:53:06;;;;;;;;;;;11.70;91.40;;;;;;4303563;33;20403;-70